createdAt,value
2023-01-15T00:00:03.055Z,8.62
2023-01-15T00:02:36.651Z,8.82
2023-01-15T00:05:07.249Z,8.81
2023-01-15T00:07:36.483Z,8.66
2023-01-15T00:10:06.831Z,8.61
2023-01-15T00:12:35.980Z,8.50
2023-01-15T00:15:06.461Z,8.70
2023-01-15T00:17:37.307Z,8.52
2023-01-15T00:20:07.671Z,8.79
2023-01-15T00:22:36.985Z,8.60
2023-01-15T00:25:30.529Z,8.67
2023-01-15T00:28:01.666Z,8.54
2023-01-15T00:30:31.616Z,8.65
2023-01-15T00:33:18.651Z,8.71
2023-01-15T00:35:50.782Z,8.88
2023-01-15T00:38:20.017Z,8.62
2023-01-15T00:40:53.001Z,8.75
2023-01-15T00:43:22.395Z,8.65
2023-01-15T00:45:52.462Z,8.81
2023-01-15T00:48:23.004Z,8.78
2023-01-15T00:50:52.469Z,8.78
2023-01-15T00:53:21.816Z,8.65
2023-01-15T00:55:51.334Z,8.86
2023-01-15T00:58:20.633Z,8.79
2023-01-15T01:00:56.085Z,8.69
2023-01-15T01:03:26.903Z,8.74
2023-01-15T01:06:00.711Z,8.69
2023-01-15T01:08:30.223Z,8.42
2023-01-15T01:11:07.307Z,8.79
2023-01-15T01:13:39.359Z,8.80
2023-01-15T01:16:25.464Z,8.95
2023-01-15T01:18:56.264Z,8.91
2023-01-15T01:21:26.211Z,8.86
2023-01-15T01:23:55.513Z,8.88
2023-01-15T01:26:25.024Z,8.79
2023-01-15T01:28:55.384Z,8.85
2023-01-15T01:31:25.585Z,8.99
2023-01-15T01:33:58.074Z,9.04
2023-01-15T01:36:30.526Z,8.99
2023-01-15T01:39:00.263Z,9.10
2023-01-15T01:41:30.620Z,9.20
2023-01-15T01:44:01.915Z,9.03
2023-01-15T01:46:33.988Z,9.34
2023-01-15T01:49:09.397Z,9.13
2023-01-15T01:51:41.084Z,9.20
2023-01-15T01:54:14.316Z,9.25
2023-01-15T01:56:44.190Z,9.33
2023-01-15T01:59:13.924Z,9.24
2023-01-15T02:01:43.525Z,9.41
2023-01-15T02:04:15.816Z,9.59
2023-01-15T02:06:45.723Z,9.24
2023-01-15T02:09:15.167Z,9.38
2023-01-15T02:11:44.969Z,9.37
2023-01-15T02:14:20.360Z,9.56
2023-01-15T02:16:57.844Z,9.54
2023-01-15T02:19:42.227Z,9.50
2023-01-15T02:22:30.791Z,9.37
2023-01-15T02:25:12.505Z,9.58
2023-01-15T02:27:47.862Z,9.33
2023-01-15T02:30:23.269Z,9.68
2023-01-15T02:33:02.404Z,9.75
2023-01-15T02:35:39.428Z,9.66
2023-01-15T02:38:16.430Z,9.55
2023-01-15T02:40:52.061Z,9.59
2023-01-15T02:43:28.939Z,9.58
2023-01-15T02:46:02.615Z,9.61
2023-01-15T02:48:34.924Z,9.63
2023-01-15T02:51:10.005Z,9.67
2023-01-15T02:53:44.040Z,9.66
2023-01-15T02:56:17.290Z,9.49
2023-01-15T02:58:56.399Z,9.72
2023-01-15T03:01:29.397Z,9.68
2023-01-15T03:04:09.958Z,9.81
2023-01-15T03:06:45.202Z,9.83
2023-01-15T03:09:15.715Z,9.71
2023-01-15T03:11:50.729Z,9.72
2023-01-15T03:14:28.181Z,9.72
2023-01-15T03:17:00.583Z,9.77
2023-01-15T03:19:34.870Z,9.96
2023-01-15T03:22:10.867Z,9.52
2023-01-15T03:24:49.875Z,9.73
2023-01-15T03:27:21.179Z,9.79
2023-01-15T03:34:17.097Z,9.99
2023-01-15T03:36:46.637Z,9.55
2023-01-15T03:39:15.910Z,9.94
2023-01-15T03:42:11.838Z,9.99
2023-01-15T03:44:47.067Z,9.85
2023-01-15T03:47:32.868Z,9.73
2023-01-15T03:50:08.797Z,9.57
2023-01-15T03:52:49.666Z,9.63
2023-01-15T03:55:24.819Z,9.47
2023-01-15T03:58:12.423Z,9.45
2023-01-15T04:00:49.017Z,9.42
2023-01-15T04:03:24.230Z,9.06
2023-01-15T04:05:56.133Z,9.11
2023-01-15T04:08:28.518Z,9.06
2023-01-15T04:10:59.852Z,9.02
2023-01-15T04:13:33.451Z,8.89
2023-01-15T04:16:03.593Z,8.98
2023-01-15T04:18:34.950Z,9.02
2023-01-15T04:21:05.500Z,8.85
2023-01-15T04:23:37.080Z,9.02
2023-01-15T04:26:07.750Z,8.83
2023-01-15T04:28:37.337Z,9.00
2023-01-15T04:31:06.730Z,9.17
2023-01-15T04:33:39.230Z,8.84
2023-01-15T04:36:09.972Z,8.86
2023-01-15T04:38:39.597Z,8.67
2023-01-15T04:41:26.532Z,8.82
2023-01-15T04:44:08.098Z,8.68
2023-01-15T04:46:39.845Z,9.02
2023-01-15T04:49:13.218Z,8.90
2023-01-15T04:51:42.616Z,8.73
2023-01-15T04:54:13.890Z,8.89
2023-01-15T04:56:45.844Z,9.09
2023-01-15T04:59:16.097Z,8.84
2023-01-15T05:02:02.054Z,9.06
2023-01-15T05:04:34.700Z,9.07
2023-01-15T05:07:04.645Z,9.06
2023-01-15T05:09:34.360Z,9.14
2023-01-15T05:12:03.971Z,8.89
2023-01-15T05:14:33.541Z,8.94
2023-01-15T05:17:02.751Z,9.05
2023-01-15T05:19:33.700Z,9.01
2023-01-15T05:22:03.002Z,9.15
2023-01-15T05:24:32.433Z,9.35
2023-01-15T05:27:02.401Z,9.30
2023-01-15T05:29:31.796Z,9.31
2023-01-15T05:32:00.954Z,9.32
2023-01-15T05:34:30.345Z,9.50
2023-01-15T05:37:00.886Z,9.40
2023-01-15T05:39:30.269Z,9.54
2023-01-15T05:41:59.455Z,9.29
2023-01-15T05:44:30.921Z,9.47
2023-01-15T05:47:05.834Z,9.41
2023-01-15T05:49:36.068Z,9.43
2023-01-15T05:52:06.900Z,9.36
2023-01-15T05:54:37.267Z,9.36
2023-01-15T05:57:06.563Z,9.43
2023-01-15T05:59:36.007Z,9.25
2023-01-15T06:02:05.227Z,9.63
2023-01-15T06:04:34.723Z,9.50
2023-01-15T06:07:05.274Z,9.56
2023-01-15T06:09:34.734Z,9.72
2023-01-15T06:12:04.039Z,9.84
2023-01-15T06:14:33.469Z,9.68
2023-01-15T06:17:02.660Z,9.83
2023-01-15T06:19:32.300Z,9.73
2023-01-15T06:22:01.764Z,9.53
2023-01-15T06:24:32.616Z,9.62
2023-01-15T06:27:01.751Z,9.72
2023-01-15T06:29:31.188Z,9.70
2023-01-15T06:32:00.487Z,9.53
2023-01-15T06:34:29.885Z,9.61
2023-01-15T06:36:59.028Z,9.57
2023-01-15T06:39:28.546Z,9.56
2023-01-15T06:42:16.468Z,9.64
2023-01-15T06:45:03.829Z,9.58
2023-01-15T06:47:33.479Z,9.69
2023-01-15T06:50:03.164Z,9.57
2023-01-15T06:52:32.285Z,9.64
2023-01-15T06:55:01.799Z,9.71
2023-01-15T06:57:32.435Z,9.56
2023-01-15T07:00:01.938Z,9.58
2023-01-15T07:02:31.127Z,9.59
2023-01-15T07:05:00.868Z,9.63
2023-01-15T07:07:31.241Z,9.75
2023-01-15T07:10:00.694Z,9.70
2023-01-15T07:12:31.607Z,9.58
2023-01-15T07:15:01.046Z,9.55
2023-01-15T07:17:30.211Z,9.60
2023-01-15T07:19:59.637Z,9.84
2023-01-15T07:22:28.870Z,9.69
2023-01-15T07:24:58.430Z,9.84
2023-01-15T07:27:27.578Z,9.94
2023-01-15T07:29:58.523Z,9.90
2023-01-15T07:32:27.680Z,10.01
2023-01-15T07:34:57.071Z,9.88
2023-01-15T07:37:28.535Z,9.94
2023-01-15T07:39:58.565Z,9.92
2023-01-15T07:42:45.013Z,10.16
2023-01-15T07:45:33.186Z,10.02
2023-01-15T07:48:19.990Z,9.85
2023-01-15T07:50:49.606Z,10.08
2023-01-15T07:53:18.786Z,9.88
2023-01-15T07:55:48.292Z,10.04
2023-01-15T07:58:17.498Z,9.98
2023-01-15T08:00:48.471Z,9.96
2023-01-15T08:03:17.639Z,9.88
2023-01-15T08:05:47.070Z,10.01
2023-01-15T08:08:19.676Z,10.15
2023-01-15T08:11:03.121Z,10.10
2023-01-15T08:13:50.294Z,10.10
2023-01-15T08:16:21.605Z,10.23
2023-01-15T08:18:50.793Z,10.23
2023-01-15T08:21:21.579Z,10.50
2023-01-15T08:23:51.156Z,10.59
2023-01-15T08:26:20.862Z,10.20
2023-01-15T08:28:50.086Z,9.73
2023-01-15T08:31:21.033Z,9.38
2023-01-15T08:33:50.382Z,9.67
2023-01-15T08:36:21.160Z,9.90
2023-01-15T08:38:51.432Z,9.76
2023-01-15T08:41:20.845Z,9.40
2023-01-15T08:43:50.015Z,9.63
2023-01-15T08:46:20.974Z,9.57
2023-01-15T08:48:50.484Z,9.52
2023-01-15T08:51:20.528Z,9.36
2023-01-15T08:53:49.610Z,9.17
2023-01-15T08:56:20.730Z,9.53
2023-01-15T08:58:49.895Z,9.71
2023-01-15T09:01:23.743Z,9.60
2023-01-15T09:03:53.036Z,9.73
2023-01-15T09:06:22.538Z,9.76
2023-01-15T09:08:51.745Z,9.66
2023-01-15T09:11:21.869Z,9.75
2023-01-15T09:13:51.802Z,9.85
2023-01-15T09:16:22.634Z,9.64
2023-01-15T09:18:51.764Z,9.66
2023-01-15T09:21:21.385Z,9.73
2023-01-15T09:23:50.598Z,9.96
2023-01-15T09:26:29.071Z,10.08
2023-01-15T09:28:58.325Z,10.05
2023-01-15T09:31:29.813Z,10.13
2023-01-15T09:33:59.699Z,10.15
2023-01-15T09:36:30.604Z,10.23
2023-01-15T09:39:01.341Z,10.19
2023-01-15T09:42:08.631Z,10.06
2023-01-15T09:45:07.333Z,10.11
2023-01-15T09:47:44.848Z,9.87
2023-01-15T09:50:24.927Z,9.76
2023-01-15T09:53:23.977Z,10.11
2023-01-15T09:55:56.006Z,10.10
2023-01-15T09:58:33.792Z,9.77
2023-01-15T10:01:04.228Z,9.95
2023-01-15T10:03:43.541Z,10.21
2023-01-15T10:06:18.974Z,10.00
2023-01-15T10:08:49.008Z,10.01
2023-01-15T10:11:53.329Z,9.73
2023-01-15T10:14:44.840Z,9.61
2023-01-15T10:17:26.156Z,9.64
2023-01-15T10:19:58.417Z,9.46
2023-01-15T10:22:44.044Z,9.56
2023-01-15T10:25:18.879Z,9.61
2023-01-15T10:27:51.963Z,9.44
2023-01-15T10:30:37.095Z,9.41
2023-01-15T10:33:21.825Z,9.51
2023-01-15T10:35:59.862Z,9.27
2023-01-15T10:38:33.747Z,9.38
2023-01-15T10:41:17.808Z,9.70
2023-01-15T10:43:54.973Z,9.02
2023-01-15T10:46:28.043Z,8.77
2023-01-15T10:49:01.167Z,9.10
2023-01-15T10:51:36.580Z,9.47
2023-01-15T10:54:12.013Z,9.68
2023-01-15T10:56:44.603Z,9.72
2023-01-15T10:59:22.374Z,9.13
2023-01-15T11:01:55.208Z,9.02
2023-01-15T11:04:24.789Z,9.03
2023-01-15T11:06:55.683Z,9.10
2023-01-15T11:09:32.374Z,9.08
2023-01-15T11:12:35.635Z,9.12
2023-01-15T11:15:34.229Z,9.08
2023-01-15T11:18:21.945Z,9.14
2023-01-15T11:20:51.845Z,9.16
2023-01-15T11:23:23.618Z,9.18
2023-01-15T11:25:55.364Z,8.99
2023-01-15T11:28:35.409Z,9.09
2023-01-15T11:31:05.115Z,8.99
2023-01-15T11:33:34.953Z,8.93
2023-01-15T11:36:07.481Z,9.11
2023-01-15T11:38:47.823Z,8.76
2023-01-15T11:41:23.747Z,8.83
2023-01-15T11:44:14.872Z,8.95
2023-01-15T11:47:04.447Z,8.83
2023-01-15T11:49:51.424Z,8.75
2023-01-15T11:52:24.727Z,8.65
2023-01-15T11:54:57.904Z,8.78
2023-01-15T11:57:29.802Z,8.98
2023-01-15T12:00:00.434Z,8.75
2023-01-15T12:02:38.099Z,8.67
2023-01-15T12:05:16.506Z,8.50
2023-01-15T12:07:47.550Z,8.33
2023-01-15T12:10:43.066Z,8.58
2023-01-15T12:13:24.262Z,8.58
2023-01-15T12:16:02.374Z,8.73
2023-01-15T12:18:57.872Z,8.42
2023-01-15T12:21:40.495Z,8.57
2023-01-15T12:24:25.117Z,8.72
2023-01-15T12:27:07.686Z,8.56
2023-01-15T12:29:45.307Z,8.76
2023-01-15T12:32:19.968Z,8.62
2023-01-15T12:34:54.505Z,9.13
2023-01-15T12:37:27.531Z,9.41
2023-01-15T12:40:06.227Z,9.25
2023-01-15T12:42:56.735Z,9.06
2023-01-15T12:45:30.226Z,8.48
2023-01-15T12:48:06.676Z,8.89
2023-01-15T12:50:44.828Z,9.00
2023-01-15T12:53:19.047Z,9.01
2023-01-15T12:55:56.967Z,9.08
2023-01-15T12:58:40.608Z,8.96
2023-01-15T13:01:17.916Z,8.96
2023-01-15T13:04:01.241Z,8.86
2023-01-15T13:06:31.988Z,8.66
2023-01-15T13:09:10.326Z,8.53
2023-01-15T13:11:39.477Z,8.90
2023-01-15T13:14:16.903Z,8.73
2023-01-15T13:16:54.009Z,8.66
2023-01-15T13:19:33.446Z,8.79
2023-01-15T13:22:07.321Z,8.40
2023-01-15T13:25:12.141Z,8.54
2023-01-15T13:27:55.735Z,8.39
2023-01-15T13:30:47.849Z,8.63
2023-01-15T13:33:26.373Z,8.55
2023-01-15T13:36:02.227Z,8.11
2023-01-15T13:38:38.104Z,8.30
2023-01-15T13:41:12.395Z,8.38
2023-01-15T13:43:44.979Z,8.26
2023-01-15T13:46:22.343Z,8.23
2023-01-15T13:48:53.203Z,8.43
2023-01-15T13:51:31.621Z,8.34
2023-01-15T13:54:02.831Z,8.32
2023-01-15T13:56:36.209Z,8.25
2023-01-15T13:59:07.423Z,8.44
2023-01-15T14:01:39.099Z,8.44
2023-01-15T14:04:15.421Z,8.55
2023-01-15T14:06:46.235Z,8.41
2023-01-15T14:09:29.573Z,8.24
2023-01-15T14:12:12.223Z,8.19
2023-01-15T14:15:17.439Z,8.44
2023-01-15T14:18:19.123Z,8.38
2023-01-15T14:21:04.401Z,8.05
2023-01-15T14:23:59.266Z,8.52
2023-01-15T14:26:42.153Z,8.34
2023-01-15T14:29:41.318Z,8.35
2023-01-15T14:32:17.705Z,8.20
2023-01-15T14:34:58.293Z,8.07
2023-01-15T14:37:31.691Z,8.54
2023-01-15T14:40:04.078Z,8.23
2023-01-15T14:42:54.019Z,8.03
2023-01-15T14:45:29.565Z,8.14
2023-01-15T14:48:00.189Z,8.10
2023-01-15T14:50:34.924Z,8.24
2023-01-15T14:53:16.696Z,8.20
2023-01-15T14:55:50.141Z,7.90
2023-01-15T14:58:38.917Z,8.42
2023-01-15T15:01:20.235Z,8.09
2023-01-15T15:03:55.129Z,8.04
2023-01-15T15:06:29.151Z,8.10
2023-01-15T15:09:04.932Z,8.12
2023-01-15T15:11:58.052Z,8.09
2023-01-15T15:14:30.037Z,7.92
2023-01-15T15:17:02.278Z,7.95
2023-01-15T15:19:36.869Z,8.03
2023-01-15T15:22:11.779Z,8.09
2023-01-15T15:24:48.906Z,7.81
2023-01-15T15:27:19.208Z,7.94
2023-01-15T15:29:48.903Z,8.12
2023-01-15T15:32:20.929Z,7.73
2023-01-15T15:34:51.951Z,8.00
2023-01-15T15:37:26.094Z,7.95
2023-01-15T15:39:59.339Z,7.94
2023-01-15T15:42:51.129Z,7.93
2023-01-15T15:45:44.815Z,8.10
2023-01-15T15:48:37.406Z,7.99
2023-01-15T15:51:24.171Z,8.00
2023-01-15T15:54:05.392Z,7.79
2023-01-15T15:56:36.243Z,7.76
2023-01-15T15:59:06.435Z,8.16
2023-01-15T16:01:40.037Z,7.83
2023-01-15T16:04:18.945Z,8.05
2023-01-15T16:06:48.682Z,7.80
2023-01-15T16:09:24.373Z,7.85
2023-01-15T16:11:55.672Z,7.90
2023-01-15T16:14:36.184Z,7.57
2023-01-15T16:17:05.485Z,7.83
2023-01-15T16:19:35.214Z,7.90
2023-01-15T16:22:06.704Z,8.02
2023-01-15T16:24:37.661Z,7.59
2023-01-15T16:27:09.443Z,7.92
2023-01-15T16:29:39.006Z,7.83
2023-01-15T16:32:15.563Z,7.64
2023-01-15T16:34:45.434Z,7.81
2023-01-15T16:37:27.193Z,7.71
2023-01-15T16:40:01.006Z,7.77
2023-01-15T16:42:35.259Z,7.78
2023-01-15T16:45:09.105Z,8.01
2023-01-15T16:47:38.552Z,8.09
2023-01-15T16:50:29.093Z,8.03
2023-01-15T16:53:00.568Z,8.27
2023-01-15T16:55:43.228Z,7.97
2023-01-15T16:58:18.527Z,7.94
2023-01-15T17:00:49.869Z,8.00
2023-01-15T17:03:21.960Z,8.19
2023-01-15T17:05:53.341Z,8.07
2023-01-15T17:08:24.874Z,8.22
2023-01-15T17:10:57.860Z,8.27
2023-01-15T17:13:34.368Z,8.20
2023-01-15T17:16:08.129Z,8.10
2023-01-15T17:18:37.388Z,8.19
2023-01-15T17:21:07.863Z,8.26
2023-01-15T17:23:41.970Z,8.25
2023-01-15T17:26:17.056Z,8.20
2023-01-15T17:28:46.408Z,8.02
2023-01-15T17:31:26.512Z,7.76
2023-01-15T17:33:55.880Z,7.94
2023-01-15T17:36:25.826Z,7.82
2023-01-15T17:38:55.079Z,7.99
2023-01-15T17:41:26.243Z,8.04
2023-01-15T17:43:55.529Z,7.91
2023-01-15T17:46:25.468Z,7.80
2023-01-15T17:48:55.058Z,7.99
2023-01-15T17:51:24.773Z,7.91
2023-01-15T17:53:54.033Z,7.71
2023-01-15T17:56:42.584Z,7.69
2023-01-15T17:59:30.787Z,7.72
2023-01-15T18:02:18.065Z,7.67
2023-01-15T18:05:07.334Z,7.46
2023-01-15T18:07:41.077Z,7.76
2023-01-15T18:10:17.475Z,7.64
2023-01-15T18:12:48.269Z,7.29
2023-01-15T18:15:17.956Z,7.49
2023-01-15T18:17:47.468Z,7.69
2023-01-15T18:20:16.922Z,7.75
2023-01-15T18:22:46.565Z,7.75
2023-01-15T18:25:16.000Z,7.53
2023-01-15T18:27:47.760Z,7.37
2023-01-15T18:30:19.412Z,7.49
2023-01-15T18:32:49.091Z,7.52
2023-01-15T18:35:18.700Z,7.66
2023-01-15T18:37:48.091Z,7.54
2023-01-15T18:40:17.318Z,7.70
2023-01-15T18:43:04.000Z,7.69
2023-01-15T18:45:52.182Z,7.52
2023-01-15T18:48:21.776Z,7.42
2023-01-15T18:50:51.380Z,7.55
2023-01-15T18:53:21.049Z,7.49
2023-01-15T18:55:51.839Z,7.60
2023-01-15T18:58:21.565Z,7.40
2023-01-15T19:00:52.613Z,7.51
2023-01-15T19:03:22.353Z,7.54
2023-01-15T19:05:51.604Z,7.56
2023-01-15T19:08:21.176Z,7.52
2023-01-15T19:10:50.463Z,7.25
2023-01-15T19:13:19.890Z,7.47
2023-01-15T19:16:06.846Z,7.39
2023-01-15T19:18:52.692Z,7.23
2023-01-15T19:21:22.986Z,7.41
2023-01-15T19:23:53.656Z,7.29
2023-01-15T19:26:23.024Z,7.30
2023-01-15T19:28:52.487Z,7.09
2023-01-15T19:31:37.268Z,7.12
2023-01-15T19:34:33.553Z,7.17
2023-01-15T19:36:59.635Z,7.18
2023-01-15T19:39:29.786Z,7.05
2023-01-15T19:42:17.709Z,7.12
2023-01-15T19:45:19.354Z,7.20
2023-01-15T19:48:03.189Z,7.07
2023-01-15T19:50:37.207Z,7.14
2023-01-15T19:53:07.913Z,7.13
2023-01-15T19:55:39.684Z,7.20
2023-01-15T19:58:10.446Z,6.99
2023-01-15T20:00:41.659Z,7.16
2023-01-15T20:03:12.914Z,7.21
2023-01-15T20:05:45.573Z,6.88
2023-01-15T20:08:18.463Z,7.00
2023-01-15T20:10:49.944Z,7.02
2023-01-15T20:13:38.207Z,7.14
2023-01-15T20:16:09.945Z,7.06
2023-01-15T20:18:39.264Z,6.89
2023-01-15T20:21:12.411Z,7.00
2023-01-15T20:23:41.785Z,6.77
2023-01-15T20:26:13.303Z,6.80
2023-01-15T20:28:43.276Z,7.04
2023-01-15T20:31:17.458Z,7.06
2023-01-15T20:33:47.339Z,7.00
2023-01-15T20:36:18.408Z,7.15
2023-01-15T20:38:47.683Z,6.95
2023-01-15T20:41:34.659Z,6.91
2023-01-15T20:44:21.262Z,6.95
2023-01-15T20:46:50.646Z,7.14
2023-01-15T20:49:25.436Z,7.13
2023-01-15T20:51:57.731Z,7.15
2023-01-15T20:54:28.149Z,6.80
2023-01-15T20:56:58.028Z,7.23
2023-01-15T20:59:27.626Z,7.05
2023-01-15T21:01:57.128Z,6.87
2023-01-15T21:04:26.815Z,7.01
2023-01-15T21:06:57.804Z,6.95
2023-01-15T21:09:27.125Z,6.89
2023-01-15T21:11:56.609Z,6.84
2023-01-15T21:14:25.719Z,6.98
2023-01-15T21:16:55.381Z,7.03
2023-01-15T21:19:25.696Z,7.13
2023-01-15T21:21:56.598Z,7.04
2023-01-15T21:24:25.914Z,7.05
2023-01-15T21:26:55.379Z,7.08
2023-01-15T21:29:24.539Z,7.02
2023-01-15T21:31:54.140Z,7.03
2023-01-15T21:34:23.353Z,7.04
2023-01-15T21:36:52.881Z,7.19
2023-01-15T21:39:23.437Z,7.08
2023-01-15T21:42:10.550Z,7.01
2023-01-15T21:44:43.383Z,6.98
2023-01-15T21:47:14.808Z,7.10
2023-01-15T21:49:44.678Z,6.96
2023-01-15T21:52:16.890Z,7.01
2023-01-15T21:54:48.063Z,7.23
2023-01-15T21:57:19.113Z,7.04
2023-01-15T21:59:48.303Z,7.07
2023-01-15T22:02:21.845Z,7.00
2023-01-15T22:04:51.449Z,6.68
2023-01-15T22:07:21.261Z,6.77
2023-01-15T22:09:52.402Z,6.81
2023-01-15T22:12:22.012Z,6.71
2023-01-15T22:14:51.142Z,6.64
2023-01-15T22:17:20.946Z,6.62
2023-01-15T22:19:51.408Z,6.59
2023-01-15T22:22:21.054Z,6.67
2023-01-15T22:24:51.636Z,6.77
2023-01-15T22:27:21.088Z,6.70
2023-01-15T22:29:50.379Z,6.76
2023-01-15T22:32:19.780Z,6.67
2023-01-15T22:34:49.592Z,6.66
2023-01-15T22:37:19.317Z,6.63
2023-01-15T22:39:49.391Z,6.66
2023-01-15T22:42:27.610Z,6.63
2023-01-15T22:45:00.222Z,6.59
2023-01-15T22:47:30.631Z,6.71
2023-01-15T22:49:59.934Z,6.61
2023-01-15T22:52:29.455Z,6.80
2023-01-15T22:54:58.671Z,6.54
2023-01-15T22:57:31.105Z,6.81
2023-01-15T23:00:00.503Z,6.63
2023-01-15T23:02:47.452Z,6.65
2023-01-15T23:05:16.641Z,6.72
2023-01-15T23:07:46.083Z,6.74
2023-01-15T23:10:16.323Z,6.41
2023-01-15T23:12:47.052Z,6.63
2023-01-15T23:15:16.461Z,6.70
2023-01-15T23:17:46.204Z,6.62
2023-01-15T23:20:15.635Z,6.83
2023-01-15T23:22:45.290Z,6.85
2023-01-15T23:25:14.485Z,6.70
2023-01-15T23:27:43.895Z,6.84
2023-01-15T23:30:15.081Z,6.95
2023-01-15T23:32:44.450Z,6.74
2023-01-15T23:35:13.529Z,6.72
2023-01-15T23:37:43.035Z,6.57
2023-01-15T23:40:13.261Z,6.94
2023-01-15T23:43:00.255Z,6.68
2023-01-15T23:45:48.673Z,6.59
2023-01-15T23:48:18.989Z,6.59
2023-01-15T23:50:48.262Z,6.48
2023-01-15T23:53:17.623Z,6.46
2023-01-15T23:55:46.790Z,6.60
2023-01-15T23:58:16.212Z,6.55
